createdAt,value
2018-05-18T00:00:35.626Z,19.02
2018-05-18T00:01:35.518Z,19.01
2018-05-18T00:02:35.350Z,19.01
2018-05-18T00:03:35.448Z,18.99
2018-05-18T00:04:35.327Z,19.02
2018-05-18T00:05:35.482Z,19.02
2018-05-18T00:06:35.361Z,19.03
2018-05-18T00:07:35.383Z,19.02
2018-05-18T00:08:35.514Z,19.01
2018-05-18T00:09:35.613Z,19.02
2018-05-18T00:10:35.431Z,19.01
2018-05-18T00:11:35.298Z,19.02
2018-05-18T00:12:35.392Z,19.01
2018-05-18T00:13:35.523Z,19.01
2018-05-18T00:14:35.342Z,19.02
2018-05-18T00:15:35.759Z,19.01
2018-05-18T00:16:35.364Z,19.02
2018-05-18T00:17:35.302Z,19.02
2018-05-18T00:18:35.403Z,19.02
2018-05-18T00:19:35.474Z,19.01
2018-05-18T00:20:35.503Z,19.01
2018-05-18T00:21:35.526Z,19.02
2018-05-18T00:22:35.462Z,19.02
2018-05-18T00:23:35.392Z,19.02
2018-05-18T00:24:35.518Z,19.01
2018-05-18T00:25:35.347Z,19.02
2018-05-18T00:26:35.519Z,18.99
2018-05-18T00:27:35.453Z,19.01
2018-05-18T00:28:35.400Z,19.01
2018-05-18T00:29:35.408Z,19.01
2018-05-18T00:30:35.372Z,19.02
2018-05-18T00:31:35.366Z,19.01
2018-05-18T00:32:35.246Z,19.02
2018-05-18T00:33:35.321Z,19.03
2018-05-18T00:34:35.522Z,19.02
2018-05-18T00:35:35.300Z,19.03
2018-05-18T00:36:35.472Z,19.01
2018-05-18T00:37:35.518Z,19.01
2018-05-18T00:38:35.469Z,19.01
2018-05-18T00:39:35.326Z,18.99
2018-05-18T00:40:35.475Z,18.99
2018-05-18T00:41:35.487Z,18.99
2018-05-18T00:42:35.321Z,19.01
2018-05-18T00:43:35.407Z,19.01
2018-05-18T00:44:35.467Z,19.01
2018-05-18T00:45:35.446Z,19.01
2018-05-18T00:46:35.451Z,19.01
2018-05-18T00:47:35.379Z,19.01
2018-05-18T00:48:35.612Z,19.01
2018-05-18T00:49:35.537Z,19.01
2018-05-18T00:50:35.469Z,19.01
2018-05-18T00:51:35.431Z,18.99
2018-05-18T00:52:35.246Z,19.01
2018-05-18T00:53:35.407Z,18.99
2018-05-18T00:54:35.662Z,19.01
2018-05-18T00:55:35.282Z,19.02
2018-05-18T00:56:35.403Z,19.01
2018-05-18T00:57:35.423Z,19.01
2018-05-18T00:58:35.536Z,18.99
2018-05-18T00:59:35.384Z,18.99
2018-05-18T01:00:35.334Z,19.01
2018-05-18T01:01:35.288Z,18.99
2018-05-18T01:02:35.534Z,18.98
2018-05-18T01:03:35.508Z,18.98
2018-05-18T01:04:35.445Z,18.99
2018-05-18T01:05:35.452Z,19.01
2018-05-18T01:06:36.098Z,18.99
2018-05-18T01:07:35.957Z,18.99
2018-05-18T01:08:36.104Z,18.99
2018-05-18T01:09:36.398Z,18.99
2018-05-18T01:10:36.136Z,19.01
2018-05-18T01:11:36.226Z,18.99
2018-05-18T01:12:36.237Z,18.99
2018-05-18T01:13:36.204Z,18.99
2018-05-18T01:14:36.077Z,18.99
2018-05-18T01:15:36.228Z,18.99
2018-05-18T01:16:35.950Z,18.99
2018-05-18T01:17:37.480Z,18.99
2018-05-18T01:18:36.290Z,18.98
2018-05-18T01:19:35.343Z,18.98
2018-05-18T01:20:35.845Z,18.97
2018-05-18T01:21:35.317Z,18.98
2018-05-18T01:22:36.069Z,18.97
2018-05-18T01:23:36.017Z,18.99
2018-05-18T01:24:36.126Z,18.98
2018-05-18T01:25:36.188Z,18.99
2018-05-18T01:26:37.451Z,18.99
2018-05-18T01:27:36.095Z,18.97
2018-05-18T01:28:35.265Z,18.98
2018-05-18T01:29:35.968Z,18.97
2018-05-18T01:30:35.365Z,18.97
2018-05-18T01:31:35.768Z,19.01
2018-05-18T01:32:36.183Z,18.99
2018-05-18T01:33:36.167Z,18.99
2018-05-18T01:34:35.929Z,18.98
2018-05-18T01:35:36.923Z,18.97
2018-05-18T01:36:36.138Z,18.98
2018-05-18T01:37:35.386Z,18.97
2018-05-18T01:38:35.920Z,18.98
2018-05-18T01:39:35.925Z,18.98
2018-05-18T01:40:36.066Z,18.97
2018-05-18T01:41:35.899Z,18.98
2018-05-18T01:42:35.890Z,18.97
2018-05-18T01:43:36.153Z,18.97
2018-05-18T01:44:36.117Z,18.97
2018-05-18T01:45:36.647Z,18.97
2018-05-18T01:46:36.325Z,18.98
2018-05-18T01:47:35.363Z,18.97
2018-05-18T01:48:36.226Z,18.98
2018-05-18T01:49:36.263Z,18.97
2018-05-18T01:50:35.258Z,18.97
2018-05-18T01:51:36.173Z,18.98
2018-05-18T01:52:36.367Z,18.98
2018-05-18T01:53:36.098Z,18.98
2018-05-18T01:54:35.454Z,18.97
2018-05-18T01:55:35.224Z,18.98
2018-05-18T01:56:35.897Z,18.97
2018-05-18T01:57:36.029Z,18.97
2018-05-18T01:58:35.338Z,18.97
2018-05-18T01:59:36.062Z,18.99
2018-05-18T02:00:36.281Z,18.97
2018-05-18T02:01:36.061Z,18.97
2018-05-18T02:02:36.168Z,18.97
2018-05-18T02:03:36.122Z,18.98
2018-05-18T02:04:35.290Z,18.98
2018-05-18T02:05:35.693Z,18.95
2018-05-18T02:06:35.384Z,18.97
2018-05-18T02:07:35.472Z,18.95
2018-05-18T02:08:35.362Z,18.95
2018-05-18T02:09:35.331Z,18.95
2018-05-18T02:10:37.986Z,18.98
2018-05-18T02:11:35.479Z,18.97
2018-05-18T02:12:35.636Z,18.97
2018-05-18T02:13:35.478Z,18.97
2018-05-18T02:14:35.326Z,18.94
2018-05-18T02:15:35.448Z,18.97
2018-05-18T02:16:35.337Z,18.94
2018-05-18T02:17:35.450Z,18.95
2018-05-18T02:18:35.348Z,18.94
2018-05-18T02:19:35.418Z,18.97
2018-05-18T02:20:35.500Z,18.95
2018-05-18T02:21:35.381Z,18.97
2018-05-18T02:22:35.436Z,18.97
2018-05-18T02:23:35.435Z,18.95
2018-05-18T02:24:35.324Z,18.95
2018-05-18T02:25:37.784Z,18.94
2018-05-18T02:26:35.353Z,18.97
2018-05-18T02:27:35.471Z,18.94
2018-05-18T02:28:37.623Z,18.95
2018-05-18T02:29:35.387Z,18.94
2018-05-18T02:30:35.489Z,18.94
2018-05-18T02:31:35.487Z,18.95
2018-05-18T02:32:35.491Z,18.94
2018-05-18T02:33:35.510Z,18.95
2018-05-18T02:34:37.608Z,18.94
2018-05-18T02:35:35.362Z,18.94
2018-05-18T02:36:35.558Z,18.94
2018-05-18T02:37:35.436Z,18.97
2018-05-18T02:38:35.371Z,18.92
2018-05-18T02:39:35.342Z,18.94
2018-05-18T02:40:37.766Z,18.92
2018-05-18T02:41:35.368Z,18.94
2018-05-18T02:42:42.606Z,18.94
2018-05-18T02:43:35.482Z,18.95
2018-05-18T02:44:35.516Z,18.91
2018-05-18T02:45:35.490Z,18.92
2018-05-18T02:46:35.406Z,18.94
2018-05-18T02:47:35.452Z,18.91
2018-05-18T02:48:37.768Z,18.92
2018-05-18T02:49:35.435Z,18.95
2018-05-18T02:50:35.400Z,18.94
2018-05-18T02:51:37.394Z,18.91
2018-05-18T02:52:35.560Z,18.97
2018-05-18T02:53:35.450Z,18.92
2018-05-18T02:54:35.486Z,18.92
2018-05-18T02:55:35.391Z,18.92
2018-05-18T02:56:35.357Z,18.92
2018-05-18T02:57:35.589Z,18.92
2018-05-18T02:58:35.491Z,18.94
2018-05-18T02:59:35.365Z,18.95
2018-05-18T03:00:35.536Z,18.91
2018-05-18T03:01:35.601Z,18.95
2018-05-18T03:02:35.376Z,18.91
2018-05-18T03:03:35.535Z,18.92
2018-05-18T03:04:35.493Z,18.92
2018-05-18T03:05:35.789Z,18.95
2018-05-18T03:06:35.767Z,18.92
2018-05-18T03:07:36.379Z,18.94
2018-05-18T03:08:35.906Z,18.94
2018-05-18T03:09:35.872Z,18.92
2018-05-18T03:10:36.011Z,18.92
2018-05-18T03:11:35.684Z,18.92
2018-05-18T03:12:35.680Z,18.92
2018-05-18T03:13:35.669Z,18.92
2018-05-18T03:14:35.715Z,18.92
2018-05-18T03:15:35.751Z,18.92
2018-05-18T03:16:35.678Z,18.91
2018-05-18T03:17:35.976Z,18.9
2018-05-18T03:18:35.468Z,18.94
2018-05-18T03:19:35.372Z,18.9
2018-05-18T03:20:35.231Z,18.91
2018-05-18T03:21:35.287Z,18.92
2018-05-18T03:22:35.461Z,18.91
2018-05-18T03:23:35.290Z,18.92
2018-05-18T03:24:35.259Z,18.91
2018-05-18T03:25:35.486Z,18.92
2018-05-18T03:26:35.257Z,18.92
2018-05-18T03:27:35.200Z,18.94
2018-05-18T03:28:35.287Z,18.91
2018-05-18T03:29:35.403Z,18.92
2018-05-18T03:30:35.428Z,18.92
2018-05-18T03:31:35.343Z,18.9
2018-05-18T03:32:35.409Z,18.9
2018-05-18T03:33:35.430Z,18.92
2018-05-18T03:34:35.282Z,18.91
2018-05-18T03:35:35.384Z,18.91
2018-05-18T03:36:35.305Z,18.9
2018-05-18T03:37:35.522Z,18.9
2018-05-18T03:38:35.489Z,18.88
2018-05-18T03:39:35.321Z,18.91
2018-05-18T03:40:35.201Z,18.9
2018-05-18T03:41:35.365Z,18.88
2018-05-18T03:42:35.452Z,18.91
2018-05-18T03:43:35.558Z,18.9
2018-05-18T03:44:35.419Z,18.9
2018-05-18T03:45:35.391Z,18.92
2018-05-18T03:46:35.333Z,18.94
2018-05-18T03:47:35.246Z,18.9
2018-05-18T03:48:35.399Z,18.88
2018-05-18T03:49:35.331Z,18.9
2018-05-18T03:50:35.476Z,18.9
2018-05-18T03:51:35.417Z,18.91
2018-05-18T03:52:35.402Z,18.9
2018-05-18T03:53:35.458Z,18.92
2018-05-18T03:54:35.396Z,18.9
2018-05-18T03:55:35.344Z,18.9
2018-05-18T03:56:35.542Z,18.91
2018-05-18T03:57:35.401Z,18.88
2018-05-18T03:58:35.233Z,18.88
2018-05-18T03:59:35.395Z,18.91
2018-05-18T04:00:35.396Z,18.9
2018-05-18T04:01:35.208Z,18.91
2018-05-18T04:02:35.458Z,18.91
2018-05-18T04:03:35.469Z,18.9
2018-05-18T04:04:35.368Z,18.9
2018-05-18T04:05:35.344Z,18.9
2018-05-18T04:06:35.291Z,18.9
2018-05-18T04:07:35.242Z,18.88
2018-05-18T04:08:35.442Z,18.91
2018-05-18T04:09:35.507Z,18.88
2018-05-18T04:10:35.431Z,18.92
2018-05-18T04:11:35.389Z,18.88
2018-05-18T04:12:35.353Z,18.88
2018-05-18T04:13:35.303Z,18.91
2018-05-18T04:14:35.442Z,18.91
2018-05-18T04:15:35.447Z,18.9
2018-05-18T04:16:35.199Z,18.9
2018-05-18T04:17:35.212Z,18.9
2018-05-18T04:18:35.429Z,18.85
2018-05-18T04:19:35.267Z,18.91
2018-05-18T04:20:35.436Z,18.88
2018-05-18T04:21:35.406Z,18.91
2018-05-18T04:22:35.285Z,18.88
2018-05-18T04:23:35.477Z,18.9
2018-05-18T04:24:35.619Z,18.9
2018-05-18T04:25:35.252Z,18.9
2018-05-18T04:26:35.265Z,18.9
2018-05-18T04:27:35.325Z,18.9
2018-05-18T04:28:35.209Z,18.9
2018-05-18T04:29:35.316Z,18.87
2018-05-18T04:30:35.535Z,18.88
2018-05-18T04:31:35.411Z,18.92
2018-05-18T04:32:35.294Z,18.9
2018-05-18T04:33:35.374Z,18.88
2018-05-18T04:34:35.236Z,18.9
2018-05-18T04:35:35.481Z,18.88
2018-05-18T04:36:35.446Z,18.9
2018-05-18T04:37:35.500Z,18.9
2018-05-18T04:38:35.523Z,18.9
2018-05-18T04:39:35.462Z,18.9
2018-05-18T04:40:35.381Z,18.9
2018-05-18T04:41:35.467Z,18.9
2018-05-18T04:42:35.454Z,18.88
2018-05-18T04:43:35.384Z,18.88
2018-05-18T04:44:35.417Z,18.9
2018-05-18T04:45:35.293Z,18.87
2018-05-18T04:46:35.490Z,18.9
2018-05-18T04:47:35.546Z,18.87
2018-05-18T04:48:35.392Z,18.88
2018-05-18T04:49:35.278Z,18.91
2018-05-18T04:50:35.436Z,18.87
2018-05-18T04:51:35.258Z,18.9
2018-05-18T04:52:35.240Z,18.9
2018-05-18T04:53:35.330Z,18.9
2018-05-18T04:54:35.268Z,18.85
2018-05-18T04:55:35.370Z,18.88
2018-05-18T04:56:35.444Z,18.88
2018-05-18T04:57:35.373Z,18.88
2018-05-18T04:58:35.369Z,18.91
2018-05-18T04:59:35.420Z,18.88
2018-05-18T05:00:35.388Z,18.9
2018-05-18T05:01:35.168Z,18.9
2018-05-18T05:02:35.330Z,18.9
2018-05-18T05:03:35.449Z,18.91
2018-05-18T05:04:35.365Z,18.9
2018-05-18T05:05:35.770Z,18.91
2018-05-18T05:06:35.392Z,18.9
2018-05-18T05:07:35.421Z,18.91
2018-05-18T05:08:35.508Z,18.88
2018-05-18T05:09:35.362Z,18.88
2018-05-18T05:10:45.459Z,18.87
2018-05-18T05:11:35.518Z,18.87
2018-05-18T05:12:35.715Z,18.9
2018-05-18T05:13:35.285Z,18.88
2018-05-18T05:14:35.401Z,18.87
2018-05-18T05:15:35.329Z,18.88
2018-05-18T05:16:35.244Z,18.88
2018-05-18T05:17:35.407Z,18.87
2018-05-18T05:18:35.481Z,18.88
2018-05-18T05:19:35.502Z,18.88
2018-05-18T05:20:35.327Z,18.87
2018-05-18T05:21:35.544Z,18.87
2018-05-18T05:22:35.223Z,18.88
2018-05-18T05:23:35.668Z,18.87
2018-05-18T05:24:35.344Z,18.88
2018-05-18T05:25:35.301Z,18.88
2018-05-18T05:26:35.138Z,18.88
2018-05-18T05:27:35.448Z,18.88
2018-05-18T05:28:35.223Z,18.88
2018-05-18T05:29:35.476Z,18.87
2018-05-18T05:30:36.002Z,18.9
2018-05-18T05:31:35.357Z,18.91
2018-05-18T05:32:35.511Z,18.95
2018-05-18T05:33:35.420Z,18.95
2018-05-18T05:34:35.474Z,18.91
2018-05-18T05:35:35.211Z,18.88
2018-05-18T05:36:35.579Z,18.94
2018-05-18T05:37:35.341Z,18.91
2018-05-18T05:38:35.380Z,18.91
2018-05-18T05:39:35.276Z,18.94
2018-05-18T05:40:35.265Z,18.95
2018-05-18T05:41:35.404Z,18.95
2018-05-18T05:42:35.320Z,18.99
2018-05-18T05:43:35.473Z,18.99
2018-05-18T05:44:35.228Z,18.98
2018-05-18T05:45:35.198Z,18.99
2018-05-18T05:46:35.402Z,19.02
2018-05-18T05:47:35.480Z,19.01
2018-05-18T05:48:35.379Z,19.02
2018-05-18T05:49:35.395Z,19.03
2018-05-18T05:50:35.364Z,19.09
2018-05-18T05:51:35.347Z,19.09
2018-05-18T05:52:35.371Z,19.08
2018-05-18T05:53:35.152Z,19.05
2018-05-18T05:54:35.446Z,19.09
2018-05-18T05:55:35.386Z,19.08
2018-05-18T05:56:35.301Z,19.08
2018-05-18T05:57:35.262Z,19.13
2018-05-18T05:58:36.166Z,19.13
2018-05-18T05:59:35.403Z,19.13
2018-05-18T06:00:35.377Z,19.12
2018-05-18T06:01:35.416Z,19.15
2018-05-18T06:02:35.228Z,19.13
2018-05-18T06:03:35.324Z,19.19
2018-05-18T06:04:35.424Z,19.16
2018-05-18T06:05:35.363Z,19.16
2018-05-18T06:06:35.622Z,19.15
2018-05-18T06:07:35.306Z,19.15
2018-05-18T06:08:35.184Z,19.16
2018-05-18T06:09:35.478Z,19.15
2018-05-18T06:10:35.630Z,19.18
2018-05-18T06:11:35.367Z,19.16
2018-05-18T06:12:35.471Z,19.19
2018-05-18T06:13:35.278Z,19.2
2018-05-18T06:14:35.411Z,19.25
2018-05-18T06:15:35.241Z,19.27
2018-05-18T06:16:35.271Z,19.29
2018-05-18T06:17:35.619Z,19.27
2018-05-18T06:18:35.687Z,19.27
2018-05-18T06:19:36.116Z,19.25
2018-05-18T06:20:35.355Z,19.27
2018-05-18T06:21:35.333Z,19.3
2018-05-18T06:22:35.267Z,19.32
2018-05-18T06:23:35.207Z,19.33
2018-05-18T06:24:35.285Z,19.35
2018-05-18T06:25:35.450Z,19.37
2018-05-18T06:26:35.368Z,19.37
2018-05-18T06:27:45.260Z,19.36
2018-05-18T06:28:35.219Z,19.33
2018-05-18T06:29:35.313Z,19.33
2018-05-18T06:30:35.423Z,19.29
2018-05-18T06:31:35.463Z,19.29
2018-05-18T06:32:35.266Z,19.3
2018-05-18T06:33:35.286Z,19.35
2018-05-18T06:34:35.760Z,19.32
2018-05-18T06:35:35.309Z,19.32
2018-05-18T06:36:35.340Z,19.32
2018-05-18T06:37:35.229Z,19.3
2018-05-18T06:38:35.388Z,19.29
2018-05-18T06:39:35.242Z,19.33
2018-05-18T06:40:35.200Z,19.33
2018-05-18T06:41:35.326Z,19.32
2018-05-18T06:42:35.435Z,19.3
2018-05-18T06:43:35.247Z,19.29
2018-05-18T06:44:35.269Z,19.32
2018-05-18T06:45:35.617Z,19.32
2018-05-18T06:46:35.176Z,19.3
2018-05-18T06:47:35.514Z,19.33
2018-05-18T06:48:35.441Z,19.33
2018-05-18T06:49:35.444Z,19.3
2018-05-18T06:50:35.247Z,19.32
2018-05-18T06:51:35.382Z,19.35
2018-05-18T06:52:35.721Z,19.35
2018-05-18T06:53:35.256Z,19.33
2018-05-18T06:54:35.443Z,19.35
2018-05-18T06:55:35.413Z,19.32
2018-05-18T06:56:35.249Z,19.3
2018-05-18T06:57:35.498Z,19.29
2018-05-18T06:58:35.398Z,19.3
2018-05-18T06:59:36.078Z,19.35
2018-05-18T07:00:35.272Z,19.39
2018-05-18T07:01:35.171Z,19.43
2018-05-18T07:02:35.239Z,19.4
2018-05-18T07:03:35.270Z,19.42
2018-05-18T07:04:35.531Z,19.43
2018-05-18T07:05:35.211Z,19.42
2018-05-18T07:06:35.419Z,19.45
2018-05-18T07:07:35.309Z,19.45
2018-05-18T07:08:35.403Z,19.47
2018-05-18T07:09:35.388Z,19.46
2018-05-18T07:10:35.948Z,19.47
2018-05-18T07:11:35.378Z,19.45
2018-05-18T07:12:35.347Z,19.45
2018-05-18T07:13:35.440Z,19.46
2018-05-18T07:14:35.379Z,19.45
2018-05-18T07:15:35.408Z,19.45
2018-05-18T07:16:36.185Z,19.39
2018-05-18T07:17:35.415Z,19.37
2018-05-18T07:18:35.199Z,19.39
2018-05-18T07:19:35.541Z,19.37
2018-05-18T07:20:35.203Z,19.4
2018-05-18T07:21:35.269Z,19.39
2018-05-18T07:22:35.424Z,19.37
2018-05-18T07:23:35.352Z,19.36
2018-05-18T07:24:35.359Z,19.37
2018-05-18T07:25:35.286Z,19.37
2018-05-18T07:26:35.599Z,19.39
2018-05-18T07:27:35.374Z,19.4
2018-05-18T07:28:35.158Z,19.46
2018-05-18T07:29:35.376Z,19.45
2018-05-18T07:30:35.145Z,19.46
2018-05-18T07:31:35.309Z,19.46
2018-05-18T07:32:35.490Z,19.45
2018-05-18T07:33:35.457Z,19.47
2018-05-18T07:34:35.139Z,19.46
2018-05-18T07:35:35.388Z,19.46
2018-05-18T07:36:35.477Z,19.47
2018-05-18T07:37:35.246Z,19.49
2018-05-18T07:38:35.470Z,19.46
2018-05-18T07:39:35.217Z,19.49
2018-05-18T07:40:35.476Z,19.46
2018-05-18T07:41:35.410Z,19.43
2018-05-18T07:42:35.541Z,19.43
2018-05-18T07:43:35.380Z,19.45
2018-05-18T07:44:35.297Z,19.43
2018-05-18T07:45:35.328Z,19.42
2018-05-18T07:46:35.452Z,19.45
2018-05-18T07:47:35.417Z,19.43
2018-05-18T07:48:35.121Z,19.43
2018-05-18T07:49:35.355Z,19.43
2018-05-18T07:50:35.411Z,19.42
2018-05-18T07:51:35.315Z,19.39
2018-05-18T07:52:35.227Z,19.37
2018-05-18T07:53:35.993Z,19.39
2018-05-18T07:54:35.364Z,19.37
2018-05-18T07:55:35.564Z,19.4
2018-05-18T07:56:35.251Z,19.4
2018-05-18T07:57:35.291Z,19.4
2018-05-18T07:58:35.146Z,19.42
2018-05-18T07:59:36.225Z,19.45
2018-05-18T08:00:35.337Z,19.4
2018-05-18T08:01:35.278Z,19.43
2018-05-18T08:02:35.309Z,19.4
2018-05-18T08:03:35.403Z,19.43
2018-05-18T08:04:35.380Z,19.42
2018-05-18T08:05:35.155Z,19.43
2018-05-18T08:06:35.189Z,19.45
2018-05-18T08:07:35.174Z,19.4
2018-05-18T08:08:35.372Z,19.46
2018-05-18T08:09:36.114Z,19.42
2018-05-18T08:10:36.174Z,19.43
2018-05-18T08:11:35.921Z,19.42
2018-05-18T08:12:35.903Z,19.4
2018-05-18T08:13:36.153Z,19.42
2018-05-18T08:14:36.045Z,19.4
2018-05-18T08:15:35.838Z,19.42
2018-05-18T08:16:35.985Z,19.4
2018-05-18T08:17:36.056Z,19.43
2018-05-18T08:18:35.863Z,19.4
2018-05-18T08:19:35.929Z,19.36
2018-05-18T08:20:35.893Z,19.4
2018-05-18T08:21:36.370Z,19.36
2018-05-18T08:22:35.898Z,19.35
2018-05-18T08:23:35.808Z,19.39
2018-05-18T08:24:35.835Z,19.36
2018-05-18T08:25:35.947Z,19.35
2018-05-18T08:26:36.060Z,19.36
2018-05-18T08:27:36.140Z,19.33
2018-05-18T08:28:35.836Z,19.29
2018-05-18T08:29:36.101Z,19.35
2018-05-18T08:30:35.974Z,19.35
2018-05-18T08:31:36.131Z,19.33
2018-05-18T08:32:35.931Z,19.32
2018-05-18T08:33:35.842Z,19.29
2018-05-18T08:34:35.973Z,19.32
2018-05-18T08:35:35.956Z,19.33
2018-05-18T08:36:35.952Z,19.3
2018-05-18T08:37:35.940Z,19.27
2018-05-18T08:38:35.903Z,19.33
2018-05-18T08:39:35.157Z,19.36
2018-05-18T08:40:35.325Z,19.36
2018-05-18T08:41:35.272Z,19.36
2018-05-18T08:42:35.226Z,19.35
2018-05-18T08:43:35.284Z,19.36
2018-05-18T08:44:35.330Z,19.33
2018-05-18T08:45:35.335Z,19.35
2018-05-18T08:46:35.168Z,19.32
2018-05-18T08:47:36.055Z,19.35
2018-05-18T08:48:35.237Z,19.33
2018-05-18T08:49:35.565Z,19.33
2018-05-18T08:50:35.348Z,19.37
2018-05-18T08:51:45.315Z,19.33
2018-05-18T08:52:35.315Z,19.33
2018-05-18T08:53:35.236Z,19.33
2018-05-18T08:54:35.397Z,19.32
2018-05-18T08:55:35.334Z,19.32
2018-05-18T08:56:35.291Z,19.35
2018-05-18T08:57:35.298Z,19.3
2018-05-18T08:58:35.197Z,19.32
2018-05-18T08:59:35.472Z,19.3
2018-05-18T09:00:35.708Z,19.29
2018-05-18T09:01:35.337Z,19.32
2018-05-18T09:02:35.190Z,19.27
2018-05-18T09:03:35.260Z,19.3
2018-05-18T09:04:35.545Z,19.3
2018-05-18T09:05:35.407Z,19.27
2018-05-18T09:06:35.447Z,19.3
2018-05-18T09:07:35.143Z,19.3
2018-05-18T09:08:35.260Z,19.29
2018-05-18T09:09:35.272Z,19.27
2018-05-18T09:10:35.294Z,19.3
2018-05-18T09:11:35.383Z,19.29
2018-05-18T09:12:35.215Z,19.26
2018-05-18T09:13:35.380Z,19.29
2018-05-18T09:14:35.416Z,19.26
2018-05-18T09:15:35.238Z,19.29
2018-05-18T09:16:35.189Z,19.25
2018-05-18T09:17:35.297Z,19.27
2018-05-18T09:18:35.205Z,19.29
2018-05-18T09:19:35.138Z,19.27
2018-05-18T09:20:35.244Z,19.26
2018-05-18T09:21:35.405Z,19.29
2018-05-18T09:22:35.193Z,19.29
2018-05-18T09:23:35.226Z,19.27
2018-05-18T09:24:35.351Z,19.26
2018-05-18T09:25:35.155Z,19.27
2018-05-18T09:26:35.255Z,19.27
2018-05-18T09:27:35.396Z,19.25
2018-05-18T09:28:35.267Z,19.26
2018-05-18T09:29:35.406Z,19.26
2018-05-18T09:30:35.344Z,19.25
2018-05-18T09:31:35.334Z,19.25
2018-05-18T09:32:35.280Z,19.23
2018-05-18T09:33:35.403Z,19.22
2018-05-18T09:34:35.073Z,19.27
2018-05-18T09:35:35.265Z,19.25
2018-05-18T09:36:35.146Z,19.22
2018-05-18T09:37:35.337Z,19.25
2018-05-18T09:38:35.100Z,19.23
2018-05-18T09:39:35.308Z,19.26
2018-05-18T09:40:35.173Z,19.23
2018-05-18T09:41:35.170Z,19.26
2018-05-18T09:42:35.304Z,19.23
2018-05-18T09:43:35.245Z,19.22
2018-05-18T09:44:35.309Z,19.23
2018-05-18T09:45:35.223Z,19.22
2018-05-18T09:46:35.217Z,19.22
2018-05-18T09:47:35.196Z,19.2
2018-05-18T09:48:35.399Z,19.22
2018-05-18T09:49:35.369Z,19.25
2018-05-18T09:50:35.355Z,19.23
2018-05-18T09:51:35.377Z,19.23
2018-05-18T09:52:35.148Z,19.22
2018-05-18T09:53:35.136Z,19.2
2018-05-18T09:54:36.381Z,19.22
2018-05-18T09:55:36.530Z,19.2
2018-05-18T09:56:35.317Z,19.23
2018-05-18T09:57:35.341Z,19.22
2018-05-18T09:58:35.305Z,19.23
2018-05-18T09:59:35.290Z,19.2
2018-05-18T10:00:35.932Z,19.22
2018-05-18T10:01:35.056Z,19.23
2018-05-18T10:02:35.362Z,19.22
2018-05-18T10:03:35.134Z,19.22
2018-05-18T10:04:35.286Z,19.2
2018-05-18T10:05:35.192Z,19.22
2018-05-18T10:06:35.178Z,19.22
2018-05-18T10:07:35.180Z,19.2
2018-05-18T10:08:35.298Z,19.22
2018-05-18T10:09:35.305Z,19.2
2018-05-18T10:10:35.203Z,19.2
2018-05-18T10:11:35.169Z,19.22
2018-05-18T10:12:35.134Z,19.2
2018-05-18T10:13:35.342Z,19.23
2018-05-18T10:14:35.299Z,19.2
2018-05-18T10:15:35.371Z,19.18
2018-05-18T10:16:35.167Z,19.22
2018-05-18T10:17:35.381Z,19.22
2018-05-18T10:18:35.814Z,19.22
2018-05-18T10:19:35.321Z,19.22
2018-05-18T10:20:35.113Z,19.18
2018-05-18T10:21:35.099Z,19.19
2018-05-18T10:22:35.140Z,19.2
2018-05-18T10:23:35.296Z,19.18
2018-05-18T10:24:35.322Z,19.19
2018-05-18T10:25:35.111Z,19.19
2018-05-18T10:26:35.303Z,19.18
2018-05-18T10:27:35.169Z,19.19
2018-05-18T10:28:35.433Z,19.2
2018-05-18T10:29:35.389Z,19.18
2018-05-18T10:30:35.089Z,19.18
2018-05-18T10:31:35.322Z,19.2
2018-05-18T10:32:35.336Z,19.18
2018-05-18T10:33:35.223Z,19.16
2018-05-18T10:34:35.340Z,19.18
2018-05-18T10:35:35.207Z,19.15
2018-05-18T10:36:35.148Z,19.16
2018-05-18T10:37:35.256Z,19.15
2018-05-18T10:38:35.341Z,19.18
2018-05-18T10:39:45.741Z,19.18
2018-05-18T10:40:35.339Z,19.18
2018-05-18T10:41:35.136Z,19.16
2018-05-18T10:42:35.139Z,19.18
2018-05-18T10:43:35.293Z,19.18
2018-05-18T10:44:35.311Z,19.18
2018-05-18T10:45:35.280Z,19.19
2018-05-18T10:46:35.238Z,19.19
2018-05-18T10:47:35.206Z,19.16
2018-05-18T10:48:35.363Z,19.15
2018-05-18T10:49:35.270Z,19.15
2018-05-18T10:50:35.310Z,19.15
2018-05-18T10:51:35.197Z,19.16
2018-05-18T10:52:35.208Z,19.13
2018-05-18T10:53:35.338Z,19.15
2018-05-18T10:54:35.380Z,19.13
2018-05-18T10:55:45.224Z,19.15
2018-05-18T10:56:35.400Z,19.19
2018-05-18T10:57:35.255Z,19.19
2018-05-18T10:58:35.693Z,19.16
2018-05-18T10:59:35.318Z,19.19
2018-05-18T11:00:35.347Z,19.22
2018-05-18T11:01:35.419Z,19.19
2018-05-18T11:02:35.233Z,19.19
2018-05-18T11:03:35.191Z,19.2
2018-05-18T11:04:35.211Z,19.26
2018-05-18T11:05:35.095Z,19.25
2018-05-18T11:06:35.292Z,19.26
2018-05-18T11:07:35.327Z,19.27
2018-05-18T11:08:35.201Z,19.26
2018-05-18T11:09:35.329Z,19.25
2018-05-18T11:10:35.250Z,19.25
2018-05-18T11:11:35.130Z,19.26
2018-05-18T11:12:35.278Z,19.27
2018-05-18T11:13:35.330Z,19.27
2018-05-18T11:14:35.375Z,19.32
2018-05-18T11:15:35.383Z,19.29
2018-05-18T11:16:35.287Z,19.32
2018-05-18T11:17:35.185Z,19.3
2018-05-18T11:18:35.306Z,19.33
2018-05-18T11:19:35.226Z,19.33
2018-05-18T11:20:35.229Z,19.3
2018-05-18T11:21:35.196Z,19.3
2018-05-18T11:22:35.317Z,19.3
2018-05-18T11:23:35.248Z,19.29
2018-05-18T11:24:35.173Z,19.3
2018-05-18T11:25:35.386Z,19.3
2018-05-18T11:26:35.117Z,19.26
2018-05-18T11:27:35.348Z,19.27
2018-05-18T11:28:35.206Z,19.27
2018-05-18T11:29:35.083Z,19.3
2018-05-18T11:30:35.195Z,19.3
2018-05-18T11:31:35.172Z,19.32
2018-05-18T11:32:35.209Z,19.29
2018-05-18T11:33:35.201Z,19.29
2018-05-18T11:34:35.290Z,19.29
2018-05-18T11:35:35.124Z,19.25
2018-05-18T11:36:35.391Z,19.29
2018-05-18T11:37:35.314Z,19.29
2018-05-18T11:38:35.073Z,19.27
2018-05-18T11:39:35.275Z,19.23
2018-05-18T11:40:35.258Z,19.26
2018-05-18T11:41:35.292Z,19.27
2018-05-18T11:42:35.250Z,19.26
2018-05-18T11:43:35.182Z,19.26
2018-05-18T11:44:35.109Z,19.29
2018-05-18T11:45:35.318Z,19.29
2018-05-18T11:46:35.451Z,19.25
2018-05-18T11:47:34.978Z,19.25
2018-05-18T11:48:35.396Z,19.25
2018-05-18T11:49:35.164Z,19.25
2018-05-18T11:50:35.297Z,19.26
2018-05-18T11:51:35.096Z,19.25
2018-05-18T11:52:35.194Z,19.26
2018-05-18T11:53:35.344Z,19.23
2018-05-18T11:54:35.913Z,19.23
2018-05-18T11:55:35.363Z,19.25
2018-05-18T11:56:35.104Z,19.22
2018-05-18T11:57:35.222Z,19.22
2018-05-18T11:58:35.368Z,19.22
2018-05-18T11:59:35.338Z,19.2
2018-05-18T12:00:35.369Z,19.23
2018-05-18T12:01:35.154Z,19.22
2018-05-18T12:02:35.441Z,19.23
2018-05-18T12:03:35.182Z,19.22
2018-05-18T12:04:35.148Z,19.2
2018-05-18T12:05:35.163Z,19.22
2018-05-18T12:06:35.262Z,19.19
2018-05-18T12:07:35.285Z,19.22
2018-05-18T12:08:35.789Z,19.2
2018-05-18T12:09:35.204Z,19.22
2018-05-18T12:10:35.209Z,19.2
2018-05-18T12:11:35.332Z,19.2
2018-05-18T12:12:35.307Z,19.19
2018-05-18T12:13:35.141Z,19.16
2018-05-18T12:14:35.113Z,19.19
2018-05-18T12:15:35.354Z,19.19
2018-05-18T12:16:35.178Z,19.19
2018-05-18T12:17:35.172Z,19.19
2018-05-18T12:18:35.166Z,19.19
2018-05-18T12:19:35.330Z,19.18
2018-05-18T12:20:35.339Z,19.18
2018-05-18T12:21:35.532Z,19.2
2018-05-18T12:22:35.328Z,19.18
2018-05-18T12:23:35.358Z,19.18
2018-05-18T12:24:35.345Z,19.18
2018-05-18T12:25:35.405Z,19.16
2018-05-18T12:26:35.375Z,19.19
2018-05-18T12:27:35.356Z,19.19
2018-05-18T12:28:35.370Z,19.16
2018-05-18T12:29:35.330Z,19.18
2018-05-18T12:30:36.821Z,19.18
2018-05-18T12:31:36.300Z,19.16
2018-05-18T12:32:35.334Z,19.15
2018-05-18T12:33:35.422Z,19.18
2018-05-18T12:34:35.421Z,19.18
2018-05-18T12:35:35.404Z,19.18
2018-05-18T12:36:35.283Z,19.18
2018-05-18T12:37:35.473Z,19.18
2018-05-18T12:38:35.451Z,19.18
2018-05-18T12:39:35.416Z,19.18
2018-05-18T12:40:35.461Z,19.18
2018-05-18T12:41:35.498Z,19.18
2018-05-18T12:42:35.476Z,19.22
2018-05-18T12:43:35.409Z,19.22
2018-05-18T12:44:36.127Z,19.22
2018-05-18T12:45:35.491Z,19.22
2018-05-18T12:46:35.479Z,19.23
2018-05-18T12:47:35.518Z,19.26
2018-05-18T12:48:35.507Z,19.26
2018-05-18T12:49:35.524Z,19.29
2018-05-18T12:50:35.148Z,19.27
2018-05-18T12:51:35.545Z,19.33
2018-05-18T12:52:35.498Z,19.32
2018-05-18T12:53:35.487Z,19.3
2018-05-18T12:54:35.078Z,19.32
2018-05-18T12:55:35.567Z,19.33
2018-05-18T12:56:35.584Z,19.33